Terminal Aerodrome Forecast
Issued by NWS

Home | Current Version | Previous Version | Text Only | Print | Product List | Glossary On
Versions: 1 2 3 4 5 6 7 8 9 10 11 12 13 14 15 16 17 18 19 20
000
FTUS41 KBOX 190523
TAFACK
TAF
KACK 190523Z 1906/2006 18015G29KT 5SM -SHRA BR VCTS OVC015CB
      WS020/21040KT
     FM190900 19012G24KT 3SM -SHRA BR OVC003
     FM191200 20010G20KT 1SM BR OVC003
     FM191800 24010KT 6SM BR SCT003
     FM200000 24008KT 3SM BR SCT200
     FM200400 24008KT 3SM BR FEW200=

USA.gov is the U.S. government's official web portal to all federal, state and local government web resources and services.